Time;durP1;ratioP1;P1;durP2;ratioP2;P2;SDS_P1;SDS_P2;PMS_P1;PMS_P2;Temp;Humidity;BMP_temperature;BMP_pressure;BME280_temperature;BME280_humidity;BME280_pressure;Samples;Min_cycle;Max_cycle;Signal;HPM_P1;HPM_P2
2022/09/19 00:01:20;;;;;;;13.57;2.50;;;;;;;10.23;100.00;101988.88;5076818;28;20420;-72
2022/09/19 00:03:50;;;;;;;19.17;2.95;;;;;;;10.23;100.00;101994.19;5095445;28;20387;-71
2022/09/19 00:06:15;;;;;;;18.88;2.10;;;;;;;10.20;100.00;101986.44;5094834;28;20024;-72
2022/09/19 00:08:43;;;;;;;17.77;2.22;;;;;;;10.14;100.00;101989.53;5095618;28;20517;-71
2022/09/19 00:11:10;;;;;;;18.85;2.65;;;;;;;10.07;100.00;101991.75;5094779;28;20063;-71
2022/09/19 00:13:39;;;;;;;17.02;2.15;;;;;;;10.00;100.00;101996.69;5094998;28;20032;-72
2022/09/19 00:16:05;;;;;;;16.38;2.50;;;;;;;9.93;100.00;101992.72;5094645;28;20024;-72
2022/09/19 00:18:31;;;;;;;18.15;2.63;;;;;;;9.89;100.00;101984.09;5094375;28;20047;-72
2022/09/19 00:20:57;;;;;;;13.07;2.17;;;;;;;9.91;100.00;101993.78;5077243;28;20035;-72
2022/09/19 00:26:11;;;;;;;17.90;2.65;;;;;;;9.82;100.00;101995.28;5094900;28;20085;-72
2022/09/19 00:28:38;;;;;;;14.32;1.88;;;;;;;9.81;100.00;101999.75;5094572;28;20034;-70
2022/09/19 00:31:04;;;;;;;13.40;2.03;;;;;;;9.81;100.00;101994.44;5094135;28;20395;-70
2022/09/19 00:33:32;;;;;;;15.13;1.90;;;;;;;9.82;100.00;101998.81;5094580;28;20036;-70
2022/09/19 00:35:59;;;;;;;8.80;1.90;;;;;;;9.86;100.00;101999.44;5094209;28;20467;-70
2022/09/19 00:38:27;;;;;;;12.80;1.95;;;;;;;9.87;100.00;101998.47;5094174;28;20035;-70
2022/09/19 00:40:54;;;;;;;16.60;2.78;;;;;;;9.88;100.00;101995.72;5095012;28;20051;-70
2022/09/19 00:43:41;;;;;;;19.35;2.17;;;;;;;9.87;100.00;102001.13;5093806;28;20039;-72
2022/09/19 00:46:07;;;;;;;11.10;1.70;;;;;;;9.87;100.00;101999.31;5094238;28;20066;-71
2022/09/19 00:48:33;;;;;;;9.80;1.67;;;;;;;9.92;100.00;102003.47;5094134;28;20433;-71
2022/09/19 00:51:00;;;;;;;11.95;1.88;;;;;;;9.96;100.00;102000.50;5093557;28;20059;-71
2022/09/19 00:53:26;;;;;;;13.43;2.33;;;;;;;10.05;100.00;102002.50;5093896;28;20369;-71
2022/09/19 00:55:54;;;;;;;16.92;2.25;;;;;;;10.19;100.00;102004.19;5076007;28;20035;-71
2022/09/19 00:58:30;;;;;;;18.00;2.47;;;;;;;10.34;100.00;102002.28;5075606;28;20043;-72
2022/09/19 01:00:57;;;;;;;13.35;2.10;;;;;;;10.43;100.00;101995.47;5093970;28;20432;-71
2022/09/19 01:03:25;;;;;;;23.52;2.88;;;;;;;10.53;100.00;101998.31;5076166;28;20097;-71
2022/09/19 01:06:22;;;;;;;15.90;2.10;;;;;;;10.61;100.00;102001.25;5092715;28;20392;-71
2022/09/19 01:09:05;;;;;;;9.98;1.52;;;;;;;10.67;99.97;101997.31;5094125;28;20347;-71
2022/09/19 01:11:36;;;;;;;9.35;1.70;;;;;;;10.67;98.89;101999.97;5094051;28;20056;-71
2022/09/19 01:14:16;;;;;;;11.50;2.17;;;;;;;10.67;97.75;102005.31;5093682;28;20067;-72
2022/09/19 01:16:50;;;;;;;13.65;2.75;;;;;;;10.63;98.43;102003.81;5094503;28;20099;-72
2022/09/19 01:19:30;;;;;;;20.90;2.42;;;;;;;10.55;99.35;102004.38;5093636;28;20111;-72
2022/09/19 01:22:08;;;;;;;25.48;3.10;;;;;;;10.47;98.38;102006.75;5093568;28;20036;-71
2022/09/19 01:24:42;;;;;;;11.25;1.98;;;;;;;10.44;97.68;102007.81;5093326;28;20081;-71
2022/09/19 01:27:26;;;;;;;22.40;3.40;;;;;;;10.38;97.87;102013.56;5093533;28;20089;-72
2022/09/19 01:30:00;;;;;;;14.13;2.13;;;;;;;10.28;97.94;102017.81;5093580;28;20043;-71
2022/09/19 01:32:32;;;;;;;15.48;2.10;;;;;;;10.24;98.89;102011.88;5093252;28;20082;-72
2022/09/19 01:35:02;;;;;;;9.77;1.92;;;;;;;10.20;97.64;102018.34;5093518;28;20028;-71
2022/09/19 01:37:47;;;;;;;8.85;1.45;;;;;;;10.24;96.07;102020.69;5093364;28;20081;-71
2022/09/19 01:40:13;;;;;;;10.65;1.83;;;;;;;10.26;95.88;102009.09;5093630;28;20097;-71
2022/09/19 01:42:56;;;;;;;19.25;2.75;;;;;;;10.28;94.69;102020.47;5093286;28;20111;-72
2022/09/19 01:45:25;;;;;;;11.07;1.80;;;;;;;10.26;94.39;102019.75;5094041;28;20032;-72
2022/09/19 01:48:09;;;;;;;8.60;1.65;;;;;;;10.23;94.42;102021.63;5093306;28;20028;-72
2022/09/19 01:50:49;;;;;;;15.25;1.95;;;;;;;10.22;93.94;102019.09;5093181;28;20044;-71
2022/09/19 01:53:39;;;;;;;9.32;1.50;;;;;;;10.19;92.93;102021.97;5094141;28;20032;-72
2022/09/19 01:56:33;;;;;;;11.93;1.58;;;;;;;10.12;92.20;102024.22;5093582;28;20047;-71
2022/09/19 01:59:04;;;;;;;13.15;1.70;;;;;;;10.03;91.90;102028.38;5092913;28;20472;-72
2022/09/19 02:01:38;;;;;;;6.47;1.50;;;;;;;9.98;92.15;102026.97;5092919;28;20103;-72
2022/09/19 02:04:21;;;;;;;12.25;2.08;;;;;;;9.95;90.68;102028.03;5093513;28;20036;-71
2022/09/19 02:07:01;;;;;;;13.27;1.80;;;;;;;9.89;92.90;102028.47;5093047;28;20035;-71
2022/09/19 02:10:00;;;;;;;11.00;1.80;;;;;;;9.75;95.79;102029.41;5093201;28;20032;-71
2022/09/19 02:12:28;;;;;;;13.45;1.38;;;;;;;9.68;95.70;102028.13;5086847;28;20044;-72
2022/09/19 02:14:59;;;;;;;12.15;1.77;;;;;;;9.71;92.66;102033.22;5093078;28;20055;-71
2022/09/19 02:17:30;;;;;;;12.30;1.88;;;;;;;9.76;92.15;102031.09;5095510;28;20028;-73
2022/09/19 02:20:22;;;;;;;13.57;1.92;;;;;;;9.74;94.47;102033.00;5096924;28;20032;-70
2022/09/19 02:22:52;;;;;;;10.57;1.60;;;;;;;9.60;96.16;102022.47;5082326;28;20361;-71
2022/09/19 02:25:22;;;;;;;8.77;1.63;;;;;;;9.49;96.68;102025.84;5096894;28;20028;-70
2022/09/19 02:27:55;;;;;;;10.23;1.65;;;;;;;9.42;97.55;102024.53;5096488;28;20146;-70
2022/09/19 02:30:21;;;;;;;8.18;1.52;;;;;;;9.37;97.81;102032.81;5096523;28;20036;-72
2022/09/19 02:32:49;;;;;;;9.95;1.67;;;;;;;9.37;98.74;102032.00;5097165;28;20372;-70
2022/09/19 02:35:40;;;;;;;18.30;2.15;;;;;;;9.37;100.00;102035.47;5096625;28;20024;-70
2022/09/19 02:38:25;;;;;;;9.48;1.40;;;;;;;9.40;100.00;102029.13;5097216;28;20039;-72
2022/09/19 02:41:04;;;;;;;9.63;1.95;;;;;;;9.46;100.00;102028.72;5096481;28;20020;-72
2022/09/19 02:43:46;;;;;;;10.52;1.40;;;;;;;9.53;99.29;102032.66;5079110;28;20170;-72
2022/09/19 02:46:31;;;;;;;;;;;;;;;9.52;100.00;102037.13;5096890;28;20035;-72
2022/09/19 02:49:10;;;;;;;10.93;1.77;;;;;;;9.46;100.00;102029.56;5095836;28;19912;-72
2022/09/19 02:51:41;;;;;;;14.98;2.08;;;;;;;9.43;100.00;102024.44;5074814;28;20154;-72
2022/09/19 02:54:31;;;;;;;17.42;2.38;;;;;;;9.40;100.00;102029.97;5076328;28;20045;-72
2022/09/19 02:57:00;;;;;;;13.73;1.55;;;;;;;9.30;100.00;102031.53;5076073;28;20032;-72
2022/09/19 02:59:29;;;;;;;14.00;1.60;;;;;;;9.22;100.00;102032.03;5075903;28;20183;-71
2022/09/19 03:02:01;;;;;;;16.20;2.08;;;;;;;9.22;100.00;102033.84;5075896;28;20029;-72
2022/09/19 03:04:31;;;;;;;12.38;2.05;;;;;;;9.18;100.00;102022.56;5076547;28;20036;-72
2022/09/19 03:07:13;;;;;;;7.35;1.48;;;;;;;9.16;100.00;102032.44;5076150;28;20035;-72
2022/09/19 03:09:44;;;;;;;6.22;1.33;;;;;;;9.16;100.00;102025.31;5076184;28;20078;-72
2022/09/19 03:12:26;;;;;;;8.23;1.52;;;;;;;9.16;100.00;102020.00;5075753;28;20028;-71
2022/09/19 03:14:55;;;;;;;8.43;1.77;;;;;;;9.11;100.00;102018.63;5075878;28;20029;-72
2022/09/19 03:17:27;;;;;;;8.73;1.42;;;;;;;9.06;100.00;102032.22;5075594;28;20119;-72
2022/09/19 03:19:53;;;;;;;10.07;1.38;;;;;;;9.08;100.00;102027.66;5075005;28;20039;-72
2022/09/19 03:22:18;;;;;;;8.38;1.52;;;;;;;9.13;100.00;102025.53;5075585;28;20024;-72
2022/09/19 03:24:44;;;;;;;8.45;1.85;;;;;;;9.19;100.00;102029.59;5075327;28;20032;-72
2022/09/19 03:27:09;;;;;;;15.57;1.67;;;;;;;9.26;100.00;102028.25;5075417;28;20527;-72
2022/09/19 03:29:35;;;;;;;6.93;1.50;;;;;;;9.33;100.00;102034.84;5074500;28;20036;-72
2022/09/19 03:32:01;;;;;;;12.95;1.95;;;;;;;9.36;100.00;102031.16;5075271;28;20119;-71
2022/09/19 03:34:30;;;;;;;9.13;1.85;;;;;;;9.40;100.00;102035.28;5075603;28;20052;-71
2022/09/19 03:36:56;;;;;;;9.88;1.52;;;;;;;9.40;99.83;102037.94;5075179;28;20037;-71
2022/09/19 03:39:21;;;;;;;12.07;1.77;;;;;;;9.44;99.17;102034.13;5075149;28;20058;-71
2022/09/19 03:41:47;;;;;;;8.52;1.50;;;;;;;9.49;98.06;102036.47;5074762;28;20028;-71
2022/09/19 03:44:13;;;;;;;15.48;2.22;;;;;;;9.50;98.42;102040.84;5075050;28;20503;-72
2022/09/19 03:46:39;;;;;;;9.82;1.90;;;;;;;9.45;98.25;102042.94;5074701;28;20431;-72
2022/09/19 03:49:04;;;;;;;11.85;1.40;;;;;;;9.36;99.62;102036.47;5074993;28;20028;-72
2022/09/19 03:51:31;;;;;;;12.93;1.60;;;;;;;9.28;100.00;102049.38;5073683;28;20060;-71
2022/09/19 03:53:57;;;;;;;12.55;1.48;;;;;;;9.21;100.00;102051.59;5074778;28;20090;-71
2022/09/19 03:56:23;;;;;;;9.60;1.55;;;;;;;9.14;100.00;102056.44;5074928;28;20465;-71
2022/09/19 03:58:48;;;;;;;19.45;2.17;;;;;;;9.14;100.00;102048.47;5074745;28;20036;-72
2022/09/19 04:01:14;;;;;;;7.15;1.52;;;;;;;9.13;100.00;102053.91;5056837;28;20056;-72
2022/09/19 04:03:40;;;;;;;9.63;1.40;;;;;;;9.16;100.00;102056.34;5074678;28;20028;-72
2022/09/19 04:06:07;;;;;;;7.32;1.42;;;;;;;9.23;100.00;102056.81;5074706;28;20060;-72
2022/09/19 04:08:33;;;;;;;11.95;1.40;;;;;;;9.26;100.00;102056.59;5074363;28;20101;-72
2022/09/19 04:10:59;;;;;;;14.95;1.50;;;;;;;9.26;100.00;102052.13;5074460;28;20522;-70
2022/09/19 04:13:25;;;;;;;8.43;1.63;;;;;;;9.26;100.00;102059.25;5074521;28;20024;-72
2022/09/19 04:15:51;;;;;;;13.43;1.48;;;;;;;9.23;100.00;102055.00;5074945;28;20067;-72
2022/09/19 04:18:17;;;;;;;13.75;1.60;;;;;;;9.28;99.89;102058.19;5074368;28;20078;-72
2022/09/19 04:20:45;;;;;;;4.82;1.35;;;;;;;9.35;99.32;102056.00;5074577;28;20043;-72
2022/09/19 04:23:11;;;;;;;7.20;1.10;;;;;;;9.41;98.38;102055.59;5074332;28;20035;-72
2022/09/19 04:25:38;;;;;;;6.60;1.08;;;;;;;9.49;97.14;102055.06;5074008;28;20476;-72
2022/09/19 04:28:09;;;;;;;10.65;1.63;;;;;;;9.50;96.74;102054.13;5074127;28;20032;-72
2022/09/19 04:30:36;;;;;;;9.32;1.30;;;;;;;9.49;96.92;102063.03;5074793;28;20162;-72
2022/09/19 04:33:04;;;;;;;12.85;1.48;;;;;;;9.49;97.46;102058.59;5074765;28;20040;-72
2022/09/19 04:35:36;;;;;;;14.75;2.10;;;;;;;9.50;97.56;102064.75;5074335;28;20032;-71
2022/09/19 04:38:03;;;;;;;7.80;1.55;;;;;;;9.49;96.73;102071.88;5073749;28;20445;-72
2022/09/19 04:40:28;;;;;;;7.60;1.25;;;;;;;9.54;96.39;102071.56;5073836;28;20044;-71
2022/09/19 04:42:54;;;;;;;4.57;1.20;;;;;;;9.57;96.76;102067.84;5073886;28;20396;-71
2022/09/19 04:45:20;;;;;;;11.90;2.00;;;;;;;9.59;97.42;102076.56;5074228;28;20115;-71
2022/09/19 04:47:47;;;;;;;7.13;1.40;;;;;;;9.61;97.76;102074.66;5074222;28;20032;-71
2022/09/19 04:50:14;;;;;;;15.98;2.08;;;;;;;9.62;98.04;102081.69;5074009;28;20056;-71
2022/09/19 04:52:39;;;;;;;15.98;1.80;;;;;;;9.63;98.41;102078.06;5074198;28;20104;-71
2022/09/19 04:55:06;;;;;;;5.40;1.30;;;;;;;9.67;98.57;102077.78;5073557;28;20119;-70
2022/09/19 04:57:31;;;;;;;9.35;1.73;;;;;;;9.68;99.33;102084.78;5073878;28;20124;-72
2022/09/19 04:59:56;;;;;;;13.15;2.47;;;;;;;9.69;100.00;102080.31;5073478;28;20116;-71
2022/09/19 05:02:22;;;;;;;15.38;2.70;;;;;;;9.73;99.85;102079.16;5073249;28;20060;-71
2022/09/19 05:04:47;;;;;;;5.25;1.38;;;;;;;9.74;99.99;102088.84;5073416;28;20028;-72
2022/09/19 05:07:13;;;;;;;9.15;1.67;;;;;;;9.78;99.81;102090.34;5073565;28;20519;-71
2022/09/19 05:09:42;;;;;;;14.57;2.53;;;;;;;9.79;99.81;102085.84;5073253;28;20399;-71
2022/09/19 05:12:09;;;;;;;12.13;1.83;;;;;;;9.79;100.00;102089.38;5073392;28;20068;-71
2022/09/19 05:14:34;;;;;;;13.27;1.63;;;;;;;9.79;100.00;102091.19;5073709;28;20082;-71
2022/09/19 05:17:00;;;;;;;9.00;1.40;;;;;;;9.80;100.00;102087.56;5072925;28;20032;-71
2022/09/19 05:19:26;;;;;;;6.95;1.42;;;;;;;9.88;100.00;102087.88;5073475;28;20432;-71
2022/09/19 05:21:51;;;;;;;13.38;2.00;;;;;;;10.00;100.00;102080.88;5073182;28;20056;-71
2022/09/19 05:24:18;;;;;;;14.30;1.80;;;;;;;10.14;100.00;102096.75;5073076;28;20111;-71
2022/09/19 05:26:44;;;;;;;9.05;1.63;;;;;;;10.23;100.00;102103.25;5073158;28;20036;-71
2022/09/19 05:29:12;;;;;;;8.10;1.55;;;;;;;10.32;99.75;102099.09;5073200;28;20066;-71
2022/09/19 05:31:38;;;;;;;14.55;2.05;;;;;;;10.42;99.35;102102.88;5072847;28;20115;-71
2022/09/19 05:34:04;;;;;;;16.83;2.05;;;;;;;10.49;98.62;102106.78;5073680;28;20116;-71
2022/09/19 05:36:30;;;;;;;10.77;1.73;;;;;;;10.57;97.00;102098.28;5073917;28;20060;-71
2022/09/19 05:38:57;;;;;;;10.25;1.83;;;;;;;10.61;96.22;102107.72;5038508;28;20032;-71
2022/09/19 05:41:23;;;;;;;9.40;1.40;;;;;;;10.62;95.51;102106.78;5073571;28;20032;-71
2022/09/19 05:43:48;;;;;;;9.40;1.80;;;;;;;10.64;95.57;102106.66;5072782;28;20483;-71
2022/09/19 05:46:14;;;;;;;13.02;1.85;;;;;;;10.65;95.50;102109.22;5073067;28;20487;-71
2022/09/19 05:48:39;;;;;;;12.38;2.03;;;;;;;10.66;95.69;102112.72;5073076;28;20039;-71
2022/09/19 05:51:05;;;;;;;11.82;1.92;;;;;;;10.68;95.87;102111.66;5073120;28;20139;-71
2022/09/19 05:56:15;;;;;;;5.82;1.23;;;;;;;10.83;93.66;102111.53;5077861;28;20409;-71
2022/09/19 05:58:41;;;;;;;10.85;1.55;;;;;;;10.90;95.02;102113.66;5076946;28;20082;-71
2022/09/19 06:01:09;;;;;;;9.27;1.75;;;;;;;10.94;94.91;102116.94;5042158;28;20060;-71
2022/09/19 06:03:35;;;;;;;10.43;1.60;;;;;;;10.99;93.56;102119.25;5076749;28;20106;-71
2022/09/19 06:06:04;;;;;;;9.13;1.42;;;;;;;11.06;93.30;102124.06;5059680;28;20051;-71
2022/09/19 06:08:30;;;;;;;8.30;1.60;;;;;;;11.15;91.53;102119.88;5076824;28;20411;-71
2022/09/19 06:10:59;;;;;;;8.48;1.80;;;;;;;11.25;91.58;102117.38;5076730;28;20041;-71
2022/09/19 06:14:13;;;;;;;12.85;1.80;;;;;;;11.34;90.50;102119.34;5076650;28;20033;-71
2022/09/19 06:16:10;;;;;;;9.25;1.30;;;;;;;11.43;90.47;102121.34;5076291;28;20043;-71
2022/09/19 06:18:35;;;;;;;5.18;1.33;;;;;;;11.50;90.31;102129.75;5076774;28;20119;-71
2022/09/19 06:21:01;;;;;;;6.75;1.20;;;;;;;11.54;90.51;102136.56;5075237;28;20067;-71
2022/09/19 06:23:26;;;;;;;12.30;1.60;;;;;;;11.56;89.65;102136.44;5076491;28;20039;-72
2022/09/19 06:25:51;;;;;;;10.75;1.40;;;;;;;11.55;89.24;102137.41;5075949;28;20078;-72
2022/09/19 06:28:17;;;;;;;7.97;1.45;;;;;;;11.51;88.71;102136.78;5076378;28;20535;-71
2022/09/19 06:30:42;;;;;;;8.85;1.77;;;;;;;11.46;90.11;102142.47;5076352;28;20119;-72
2022/09/19 06:33:07;;;;;;;10.80;1.63;;;;;;;11.39;89.26;102143.00;5076252;28;20032;-72
2022/09/19 06:35:34;;;;;;;6.30;1.50;;;;;;;11.35;89.01;102147.72;5076034;28;20077;-71
2022/09/19 06:38:01;;;;;;;11.23;1.75;;;;;;;11.31;90.65;102140.06;5075823;28;20032;-71
2022/09/19 06:40:28;;;;;;;12.52;1.60;;;;;;;11.26;91.63;102146.56;5075858;28;20047;-69
2022/09/19 06:43:01;;;;;;;5.63;1.20;;;;;;;11.26;91.14;102149.25;5075836;28;20039;-70
2022/09/19 06:45:40;;;;;;;9.80;1.42;;;;;;;11.27;91.66;102150.06;5075728;28;20114;-71
2022/09/19 06:48:07;;;;;;;9.65;1.45;;;;;;;11.27;92.37;102150.94;5075729;28;20037;-72
2022/09/19 06:50:33;;;;;;;7.00;1.40;;;;;;;11.28;92.33;102160.63;5085201;28;20052;-71
2022/09/19 06:52:59;;;;;;;5.55;1.35;;;;;;;11.36;91.74;102159.22;5096407;28;20361;-71
2022/09/19 06:55:25;;;;;;;12.73;1.50;;;;;;;11.48;92.34;102166.34;5095550;28;20032;-71
2022/09/19 06:58:09;;;;;;;9.40;1.50;;;;;;;11.72;91.16;102153.00;5095813;28;20020;-71
2022/09/19 07:00:36;;;;;;;6.50;1.08;;;;;;;12.02;89.84;102166.81;5095814;28;20084;-71
2022/09/19 07:03:04;;;;;;;6.15;1.50;;;;;;;12.37;90.39;102165.97;5094706;28;20032;-71
2022/09/19 07:05:31;;;;;;;4.20;1.30;;;;;;;12.63;88.39;102166.59;5096343;28;20035;-70
2022/09/19 07:07:57;;;;;;;18.58;2.20;;;;;;;12.84;87.56;102169.41;5095453;28;20102;-70
2022/09/19 07:10:22;;;;;;;10.13;1.63;;;;;;;13.06;87.31;102179.22;5095819;28;20048;-71
2022/09/19 07:13:04;;;;;;;15.55;2.33;;;;;;;13.21;85.94;102171.78;5095533;28;20032;-72
2022/09/19 07:15:32;;;;;;;9.57;1.70;;;;;;;13.33;84.14;102168.16;5096292;28;20044;-71
2022/09/19 07:17:58;;;;;;;9.10;1.52;;;;;;;13.38;83.10;102165.13;5095912;28;20042;-70
2022/09/19 07:20:25;;;;;;;8.15;1.73;;;;;;;13.44;83.31;102172.66;5077257;28;20028;-71
2022/09/19 07:23:15;;;;;;;9.40;1.48;;;;;;;13.40;82.61;102177.41;5095410;28;20074;-71
2022/09/19 07:25:42;;;;;;;6.35;1.35;;;;;;;13.43;83.44;102173.59;5095894;28;20038;-71
2022/09/19 07:28:11;;;;;;;12.90;2.42;;;;;;;13.53;83.78;102181.75;5095198;28;20028;-72
2022/09/19 07:30:38;;;;;;;5.55;1.35;;;;;;;13.66;83.66;102187.78;5095503;28;20031;-71
2022/09/19 07:33:07;;;;;;;8.30;1.50;;;;;;;13.64;80.46;102179.00;5095212;28;20048;-71
2022/09/19 07:35:35;;;;;;;6.07;1.27;;;;;;;13.66;80.76;102178.88;5095099;28;20036;-71
2022/09/19 07:38:01;;;;;;;12.80;1.95;;;;;;;13.64;80.68;102184.38;5076608;28;20036;-71
2022/09/19 07:40:26;;;;;;;12.23;1.85;;;;;;;13.58;80.21;102182.19;5094941;28;20032;-71
2022/09/19 07:42:57;;;;;;;11.00;1.92;;;;;;;13.54;80.22;102188.75;5094911;28;20028;-73
2022/09/19 07:45:22;;;;;;;15.02;1.88;;;;;;;13.50;80.36;102190.00;5094534;28;20032;-70
2022/09/19 07:47:48;;;;;;;12.00;1.50;;;;;;;13.43;79.97;102191.47;5094854;28;20111;-71
2022/09/19 07:50:16;;;;;;;8.32;1.35;;;;;;;13.34;81.23;102193.91;5094619;28;20127;-71
2022/09/19 07:52:46;;;;;;;9.98;2.03;;;;;;;13.26;81.52;102192.84;5095009;28;20031;-71
2022/09/19 07:55:13;;;;;;;7.70;1.48;;;;;;;13.24;80.71;102190.25;5094717;28;20036;-71
2022/09/19 07:57:49;;;;;;;9.05;1.50;;;;;;;13.34;79.45;102193.06;5094678;28;20032;-71
2022/09/19 08:00:14;;;;;;;5.10;1.13;;;;;;;13.49;79.15;102193.66;5094759;28;20024;-69
2022/09/19 08:02:40;;;;;;;7.80;1.92;;;;;;;13.72;77.26;102191.78;5094636;28;20395;-70
2022/09/19 08:05:05;;;;;;;5.70;1.10;;;;;;;14.17;75.29;102201.44;5094584;28;20070;-70
2022/09/19 08:07:31;;;;;;;8.50;1.73;;;;;;;14.70;74.16;102196.00;5094389;28;20024;-69
2022/09/19 08:09:56;;;;;;;12.52;1.73;;;;;;;15.01;70.51;102204.06;5094942;28;20028;-70
2022/09/19 08:12:22;;;;;;;8.27;1.25;;;;;;;15.15;69.63;102213.53;5094463;28;20607;-69
2022/09/19 08:14:48;;;;;;;8.50;1.40;;;;;;;15.16;65.41;102209.88;5094069;28;20032;-70
2022/09/19 08:17:13;;;;;;;5.45;1.25;;;;;;;15.19;66.59;102214.97;5094512;28;20036;-70
2022/09/19 08:19:39;;;;;;;8.63;1.55;;;;;;;15.29;68.86;102229.25;5094240;28;20035;-70
2022/09/19 08:22:04;;;;;;;6.20;1.63;;;;;;;15.37;66.27;102222.38;5094479;28;20384;-70
2022/09/19 08:24:30;;;;;;;5.03;1.25;;;;;;;15.49;67.41;102224.78;5094113;28;20105;-70
2022/09/19 08:26:56;;;;;;;6.38;1.30;;;;;;;15.67;65.48;102229.50;5094345;28;20043;-71
2022/09/19 08:29:21;;;;;;;7.35;1.73;;;;;;;15.95;63.09;102227.03;5093702;28;20073;-70
2022/09/19 08:31:47;;;;;;;7.90;1.92;;;;;;;16.17;59.85;102234.78;5094349;28;20430;-71
2022/09/19 08:34:12;;;;;;;7.18;1.27;;;;;;;16.54;58.53;102235.84;5094176;28;20030;-70
2022/09/19 08:36:40;;;;;;;9.98;1.70;;;;;;;16.90;57.24;102231.56;5094070;28;20085;-71
2022/09/19 08:39:05;;;;;;;4.28;1.08;;;;;;;16.80;57.37;102237.94;5093707;28;20547;-70
2022/09/19 08:41:46;;;;;;;9.48;1.45;;;;;;;16.56;60.45;102233.91;5093795;28;20116;-71
2022/09/19 08:44:17;;;;;;;6.53;1.40;;;;;;;16.25;60.94;102239.44;5093774;28;20032;-70
2022/09/19 08:46:59;;;;;;;5.70;1.63;;;;;;;16.11;60.74;102250.59;5076041;28;20428;-70
2022/09/19 08:49:40;;;;;;;7.80;1.23;;;;;;;16.05;61.99;102249.34;5093408;28;20111;-70
2022/09/19 08:52:12;;;;;;;4.90;1.02;;;;;;;16.36;61.75;102244.69;5093908;28;20058;-69
2022/09/19 08:54:47;;;;;;;10.02;1.70;;;;;;;17.10;59.34;102245.78;5094095;28;20035;-69
2022/09/19 08:57:34;;;;;;;13.95;2.00;;;;;;;17.78;57.87;102244.56;5093342;28;20464;-69
2022/09/19 09:00:07;;;;;;;5.72;1.35;;;;;;;19.71;51.10;102248.16;5093485;28;20035;-69
2022/09/19 09:02:53;;;;;;;10.38;1.50;;;;;;;20.30;47.34;102244.53;5075540;28;20040;-69
2022/09/19 09:05:52;;;;;;;7.55;1.42;;;;;;;20.33;47.04;102249.59;5092481;28;20214;-70
2022/09/19 09:08:51;;;;;;;12.73;2.13;;;;;;;19.19;47.68;102246.47;5093728;28;20039;-69
2022/09/19 09:11:49;;;;;;;11.02;1.48;;;;;;;17.98;52.88;102245.28;5093541;28;20051;-69
2022/09/19 09:15:01;;;;;;;10.40;1.85;;;;;;;17.26;55.83;102250.50;5094008;28;20034;-69
2022/09/19 09:17:32;;;;;;;7.15;1.30;;;;;;;16.63;57.43;102250.28;5089895;28;20628;-70
2022/09/19 09:20:00;;;;;;;8.35;1.65;;;;;;;16.20;59.53;102258.66;5092909;28;20020;-70
2022/09/19 09:22:32;;;;;;;7.32;1.75;;;;;;;16.00;63.32;102262.31;5093173;28;20028;-69
2022/09/19 09:25:28;;;;;;;4.88;1.30;;;;;;;16.03;60.21;102252.19;5093171;28;20115;-70
2022/09/19 09:28:14;;;;;;;6.65;1.50;;;;;;;16.39;61.66;102251.56;5084120;28;20480;-70
2022/09/19 09:30:47;;;;;;;9.18;1.75;;;;;;;16.86;57.95;102248.94;5093597;28;20063;-71
2022/09/19 09:33:44;;;;;;;5.10;1.15;;;;;;;16.99;56.54;102250.47;5075498;28;20024;-70
2022/09/19 09:36:19;;;;;;;5.72;1.30;;;;;;;17.99;53.80;102254.22;5092684;28;20038;-70
2022/09/19 09:38:51;;;;;;;7.38;1.15;;;;;;;18.90;50.65;102253.09;5093112;28;20024;-71
2022/09/19 09:41:45;;;;;;;8.75;1.20;;;;;;;19.48;49.41;102251.47;5092990;28;20032;-70
2022/09/19 09:44:12;;;;;;;7.88;1.70;;;;;;;21.17;45.71;102258.25;5093023;28;20119;-70
2022/09/19 09:46:50;;;;;;;10.27;1.77;;;;;;;22.14;41.25;102254.34;5092547;28;20472;-71
2022/09/19 09:49:18;;;;;;;5.95;1.08;;;;;;;22.40;39.82;102253.94;5092717;28;20483;-71
2022/09/19 09:52:03;;;;;;;4.70;1.15;;;;;;;22.62;39.31;102252.22;5074120;28;20053;-71
2022/09/19 09:57:53;;;;;;;10.02;1.30;;;;;;;23.74;36.95;102258.50;5072686;28;20043;-71
2022/09/19 10:03:34;;;;;;;11.60;1.92;;;;;;;22.50;36.98;102254.53;5073282;28;20048;-70
2022/09/19 10:06:07;;;;;;;5.68;1.25;;;;;;;21.40;40.23;102266.44;5072680;28;20054;-71
2022/09/19 10:08:59;;;;;;;4.95;1.17;;;;;;;21.01;42.04;102264.56;5072929;28;20024;-71
2022/09/19 10:11:44;;;;;;;8.48;1.50;;;;;;;21.79;42.36;102265.56;5073056;28;20112;-69
2022/09/19 10:14:19;;;;;;;4.82;1.20;;;;;;;22.37;39.03;102262.44;5073317;28;20024;-69
2022/09/19 10:16:48;;;;;;;7.60;2.33;;;;;;;23.41;36.14;102265.25;5072641;28;20055;-69
2022/09/19 10:19:25;;;;;;;7.25;1.50;;;;;;;23.40;36.31;102262.72;5072674;28;20029;-69
2022/09/19 10:21:52;;;;;;;3.00;1.20;;;;;;;23.82;34.57;102266.53;5073126;28;20032;-71
2022/09/19 10:24:55;;;;;;;2.40;1.00;;;;;;;23.82;35.20;102268.41;5072373;28;20361;-69
2022/09/19 10:27:24;;;;;;;5.57;1.40;;;;;;;24.28;35.00;102268.06;5073436;28;20032;-70
2022/09/19 10:29:56;;;;;;;4.95;1.30;;;;;;;24.11;35.39;102275.66;5072759;28;20513;-70
2022/09/19 10:32:24;;;;;;;10.55;1.25;;;;;;;23.82;36.38;102266.53;5072633;28;20354;-70
2022/09/19 10:34:50;;;;;;;4.75;1.50;;;;;;;23.13;36.68;102264.25;5072529;28;20032;-69
2022/09/19 10:37:18;;;;;;;7.22;1.23;;;;;;;22.47;36.09;102268.47;5055343;28;20036;-69
2022/09/19 10:39:46;;;;;;;7.13;1.15;;;;;;;21.82;38.68;102258.94;5058130;28;20121;-70
2022/09/19 10:42:37;;;;;;;3.70;1.25;;;;;;;21.30;40.95;102263.94;5076191;28;20036;-70
2022/09/19 10:45:15;;;;;;;5.90;1.35;;;;;;;21.09;41.31;102269.94;5076493;28;20031;-69
2022/09/19 10:47:41;;;;;;;8.25;1.50;;;;;;;20.82;41.62;102268.47;5076041;28;20411;-69
2022/09/19 10:50:15;;;;;;;7.78;1.70;;;;;;;20.87;42.25;102267.97;5075863;28;20051;-70
2022/09/19 10:52:44;;;;;;;7.43;1.33;;;;;;;20.76;43.49;102274.59;5075981;28;20021;-70
2022/09/19 10:55:21;;;;;;;7.78;1.65;;;;;;;20.51;44.79;102271.91;5076045;28;20119;-69
2022/09/19 10:57:57;;;;;;;9.98;1.35;;;;;;;20.22;45.10;102270.53;5075868;28;20042;-71
2022/09/19 11:00:32;;;;;;;5.88;1.20;;;;;;;19.53;46.00;102275.28;5076277;28;20032;-70
2022/09/19 11:03:16;;;;;;;11.70;1.83;;;;;;;18.79;48.91;102275.72;5076404;28;20134;-70
2022/09/19 11:05:42;;;;;;;12.68;1.80;;;;;;;18.00;52.34;102274.75;5058149;28;20484;-69
2022/09/19 11:08:26;;;;;;;5.70;1.15;;;;;;;17.61;54.15;102274.97;5075552;28;20040;-69
2022/09/19 11:10:51;;;;;;;10.30;1.10;;;;;;;17.71;54.17;102277.63;5075818;28;20032;-69
2022/09/19 11:13:25;;;;;;;11.00;1.77;;;;;;;17.93;54.55;102279.06;5057372;28;20036;-69
2022/09/19 11:15:56;;;;;;;7.22;1.33;;;;;;;18.00;55.10;102274.75;5075626;28;20031;-69
2022/09/19 11:18:38;;;;;;;9.13;1.40;;;;;;;18.22;55.04;102268.03;5075595;28;20029;-69
2022/09/19 11:21:10;;;;;;;5.38;1.45;;;;;;;18.25;55.59;102269.59;5075850;28;20476;-69
2022/09/19 11:23:44;;;;;;;6.47;1.60;;;;;;;18.14;53.83;102273.38;5075336;28;20112;-69
2022/09/19 11:26:27;;;;;;;9.93;1.30;;;;;;;18.13;53.00;102275.19;5075767;28;20108;-69
2022/09/19 11:29:06;;;;;;;8.10;1.17;;;;;;;18.21;53.57;102270.91;5075320;28;20032;-69
2022/09/19 11:32:06;;;;;;;12.38;1.73;;;;;;;18.19;54.41;102273.75;5075808;28;20093;-69
2022/09/19 11:34:46;;;;;;;6.80;1.27;;;;;;;18.44;52.77;102279.34;5057348;28;20032;-70
2022/09/19 11:37:56;;;;;;;6.40;1.38;;;;;;;18.56;52.63;102267.31;5075578;28;20029;-69
2022/09/19 11:40:46;;;;;;;6.10;1.33;;;;;;;18.63;51.14;102281.00;5057743;28;20354;-70
2022/09/19 11:43:38;;;;;;;8.80;1.83;;;;;;;18.64;50.63;102278.13;5075748;28;20086;-69
2022/09/19 11:46:20;;;;;;;7.82;1.45;;;;;;;18.50;52.09;102270.63;5075036;28;20357;-70
2022/09/19 11:49:15;;;;;;;9.80;1.50;;;;;;;18.46;52.74;102278.16;5074518;28;20472;-70
2022/09/19 11:51:56;;;;;;;8.70;2.00;;;;;;;18.55;55.77;102268.31;5075798;28;20045;-70
2022/09/19 11:54:44;;;;;;;9.27;1.67;;;;;;;18.59;58.23;102271.56;5057239;28;20025;-70
2022/09/19 11:57:47;;;;;;;7.05;1.40;;;;;;;18.31;59.30;102277.88;5057220;28;20498;-70